CFI102 ZGHA-ZGHA
Flight info
| Callsign | CFI102 |
|---|---|
| Flight time | 0h 33m |
| Altitude | 3000 |
| Route | LOCAL |
| Aircraft | C750/M-SBDE3FGHRWXY/S |
Departure
| Time | 2026-05-04 06:42 |
|---|---|
| Airport | Changsha Huanghua International Airport (ZGHA) |
Arrival
| Time | 2026-05-04 07:15 |
|---|---|
| Airport | Changsha Huanghua International Airport (ZGHA) |
| Time | Latitude | Longitude | Altitude | Speed | Heading |
|---|---|---|---|---|---|
| 2026-05-04 06:21 | 28.18520 | 113.21622 | 209 ft | 0 kts | 175° |
| 2026-05-04 06:34 | 28.18536 | 113.21620 | 215 ft | 4 kts | 176° |
| 2026-05-04 06:34 | 28.18562 | 113.21618 | 210 ft | 4 kts | 165° |
| 2026-05-04 06:34 | 28.18579 | 113.21607 | 208 ft | 3 kts | 91° |
| 2026-05-04 06:35 | 28.18579 | 113.21599 | 208 ft | 0 kts | 87° |
| 2026-05-04 06:37 | 28.18580 | 113.21607 | 208 ft | 5 kts | 87° |
| 2026-05-04 06:38 | 28.18584 | 113.21693 | 209 ft | 16 kts | 87° |
| 2026-05-04 06:38 | 28.18571 | 113.21802 | 214 ft | 12 kts | 140° |
| 2026-05-04 06:40 | 28.17768 | 113.21867 | 218 ft | 15 kts | 148° |
| 2026-05-04 06:40 | 28.17743 | 113.21938 | 220 ft | 0 kts | 85° |
| 2026-05-04 06:40 | 28.17743 | 113.21939 | 220 ft | 1 kts | 85° |
| 2026-05-04 06:41 | 28.17748 | 113.21974 | 220 ft | 7 kts | 70° |
| 2026-05-04 06:41 | 28.17794 | 113.22042 | 218 ft | 14 kts | 17° |
| 2026-05-04 06:41 | 28.17841 | 113.22041 | 218 ft | 13 kts | 356° |
| 2026-05-04 06:41 | 28.18335 | 113.22010 | 213 ft | 128 kts | 356° |
| 2026-05-04 06:42 | 28.19382 | 113.21948 | 452 ft | 166 kts | 359° |
| 2026-05-04 06:42 | 28.20653 | 113.21935 | 805 ft | 198 kts | 2° |
| 2026-05-04 06:42 | 28.22105 | 113.21868 | 1374 ft | 213 kts | 356° |
| 2026-05-04 06:44 | 28.27021 | 113.29548 | 2983 ft | 220 kts | 85° |
| 2026-05-04 06:44 | 28.27147 | 113.31266 | 2977 ft | 218 kts | 86° |
| 2026-05-04 06:44 | 28.27271 | 113.32989 | 2969 ft | 220 kts | 86° |
| 2026-05-04 06:45 | 28.27343 | 113.34714 | 2936 ft | 221 kts | 95° |
| 2026-05-04 06:45 | 28.26640 | 113.36195 | 2859 ft | 217 kts | 139° |
| 2026-05-04 06:45 | 28.25264 | 113.36800 | 2900 ft | 218 kts | 170° |
| 2026-05-04 06:45 | 28.23748 | 113.36693 | 2994 ft | 219 kts | 191° |
| 2026-05-04 06:46 | 28.22240 | 113.36370 | 3006 ft | 221 kts | 188° |
| 2026-05-04 06:46 | 28.20715 | 113.36186 | 2993 ft | 219 kts | 184° |
| 2026-05-04 06:46 | 28.19183 | 113.36081 | 2975 ft | 219 kts | 183° |
| 2026-05-04 06:46 | 28.17659 | 113.35961 | 2988 ft | 221 kts | 184° |
| 2026-05-04 06:48 | 28.06966 | 113.35630 | 2966 ft | 219 kts | 176° |
| 2026-05-04 06:48 | 28.05438 | 113.35719 | 2965 ft | 220 kts | 176° |
| 2026-05-04 06:49 | 28.03895 | 113.35812 | 2972 ft | 222 kts | 176° |
| 2026-05-04 06:50 | 27.94784 | 113.33306 | 1966 ft | 211 kts | 262° |
| 2026-05-04 06:51 | 27.94698 | 113.31634 | 1990 ft | 214 kts | 267° |
| 2026-05-04 06:51 | 27.94626 | 113.29941 | 1969 ft | 216 kts | 266° |
| 2026-05-04 06:51 | 27.94545 | 113.28258 | 1979 ft | 215 kts | 266° |
| 2026-05-04 06:51 | 27.94473 | 113.26563 | 1976 ft | 214 kts | 269° |
| 2026-05-04 06:52 | 27.94900 | 113.24969 | 1912 ft | 215 kts | 304° |
| 2026-05-04 06:52 | 27.96049 | 113.23922 | 1940 ft | 217 kts | 337° |
| 2026-05-04 06:52 | 27.97521 | 113.23665 | 1978 ft | 214 kts | 357° |
| 2026-05-04 06:52 | 27.99024 | 113.23559 | 1981 ft | 216 kts | 356° |
| 2026-05-04 06:53 | 28.00521 | 113.23445 | 1967 ft | 216 kts | 357° |
| 2026-05-04 06:53 | 28.02020 | 113.23355 | 1966 ft | 215 kts | 357° |
| 2026-05-04 06:53 | 28.03517 | 113.23271 | 1966 ft | 215 kts | 358° |
| 2026-05-04 06:53 | 28.05013 | 113.23182 | 1980 ft | 216 kts | 357° |
| 2026-05-04 06:54 | 28.06506 | 113.23087 | 1981 ft | 215 kts | 357° |
| 2026-05-04 06:54 | 28.08004 | 113.23010 | 1970 ft | 216 kts | 358° |
| 2026-05-04 06:54 | 28.09517 | 113.22926 | 1747 ft | 221 kts | 358° |
| 2026-05-04 06:54 | 28.11056 | 113.22834 | 1459 ft | 220 kts | 358° |
| 2026-05-04 06:55 | 28.12560 | 113.22741 | 1177 ft | 210 kts | 358° |
| 2026-05-04 06:55 | 28.13978 | 113.22655 | 906 ft | 198 kts | 358° |
| 2026-05-04 06:55 | 28.15268 | 113.22577 | 636 ft | 170 kts | 358° |
| 2026-05-04 06:55 | 28.16387 | 113.22510 | 422 ft | 156 kts | 358° |
| 2026-05-04 06:56 | 28.17481 | 113.22449 | 255 ft | 161 kts | 358° |
| 2026-05-04 06:57 | 28.25754 | 113.22075 | 949 ft | 212 kts | 359° |
| 2026-05-04 06:58 | 28.27245 | 113.22033 | 1544 ft | 212 kts | 359° |
| 2026-05-04 06:58 | 28.28677 | 113.21992 | 2502 ft | 196 kts | 359° |
| 2026-05-04 06:58 | 28.30078 | 113.21955 | 3041 ft | 213 kts | 359° |
| 2026-05-04 06:58 | 28.31607 | 113.21922 | 2973 ft | 220 kts | 360° |
| 2026-05-04 06:59 | 28.33120 | 113.21904 | 2951 ft | 216 kts | 0° |
| 2026-05-04 06:59 | 28.34626 | 113.21900 | 2973 ft | 217 kts | 0° |
| 2026-05-04 06:59 | 28.36145 | 113.21899 | 2958 ft | 218 kts | 0° |
| 2026-05-04 06:59 | 28.37691 | 113.21899 | 2967 ft | 227 kts | 0° |
| 2026-05-04 07:01 | 28.38475 | 113.27970 | 2996 ft | 221 kts | 171° |
| 2026-05-04 07:01 | 28.36979 | 113.28309 | 2990 ft | 219 kts | 166° |
| 2026-05-04 07:02 | 28.35513 | 113.28737 | 2989 ft | 217 kts | 165° |
| 2026-05-04 07:02 | 28.34041 | 113.29153 | 2987 ft | 219 kts | 166° |
| 2026-05-04 07:02 | 28.32557 | 113.29567 | 2979 ft | 220 kts | 165° |
| 2026-05-04 07:02 | 28.31076 | 113.29956 | 2974 ft | 220 kts | 167° |
| 2026-05-04 07:03 | 28.29586 | 113.30344 | 2964 ft | 220 kts | 166° |
| 2026-05-04 07:03 | 28.28097 | 113.30755 | 2966 ft | 220 kts | 165° |
| 2026-05-04 07:03 | 28.26611 | 113.31167 | 2989 ft | 219 kts | 166° |
| 2026-05-04 07:03 | 28.25124 | 113.31568 | 2964 ft | 219 kts | 166° |
| 2026-05-04 07:04 | 28.23643 | 113.31968 | 2982 ft | 219 kts | 166° |
| 2026-05-04 07:04 | 28.22157 | 113.32373 | 2956 ft | 220 kts | 166° |
| 2026-05-04 07:04 | 28.21180 | 113.32638 | 2965 ft | 219 kts | 166° |
| 2026-05-04 07:04 | 28.19190 | 113.33176 | 2972 ft | 220 kts | 166° |
| 2026-05-04 07:05 | 28.17703 | 113.33577 | 2968 ft | 220 kts | 166° |
| 2026-05-04 07:05 | 28.16721 | 113.33845 | 2975 ft | 219 kts | 166° |
| 2026-05-04 07:05 | 28.14730 | 113.34391 | 2970 ft | 220 kts | 166° |
| 2026-05-04 07:05 | 28.13267 | 113.34782 | 2987 ft | 220 kts | 166° |
| 2026-05-04 07:06 | 28.10759 | 113.35399 | 2930 ft | 220 kts | 173° |
| 2026-05-04 07:06 | 28.08747 | 113.35501 | 2976 ft | 219 kts | 176° |
| 2026-05-04 07:06 | 28.07225 | 113.35608 | 2974 ft | 220 kts | 175° |
| 2026-05-04 07:07 | 28.06194 | 113.35679 | 2974 ft | 220 kts | 176° |
| 2026-05-04 07:08 | 27.95691 | 113.35541 | 2083 ft | 216 kts | 220° |
| 2026-05-04 07:09 | 27.94897 | 113.34173 | 2121 ft | 207 kts | 252° |
| 2026-05-04 07:09 | 27.94740 | 113.32536 | 2237 ft | 212 kts | 266° |
| 2026-05-04 07:09 | 27.94669 | 113.30847 | 2296 ft | 218 kts | 266° |
| 2026-05-04 07:09 | 27.94588 | 113.29164 | 2273 ft | 214 kts | 266° |
| 2026-05-04 07:10 | 27.94508 | 113.27469 | 2279 ft | 219 kts | 266° |
| 2026-05-04 07:10 | 27.94562 | 113.25768 | 2215 ft | 216 kts | 284° |
| 2026-05-04 07:12 | 28.03464 | 113.23271 | 2255 ft | 173 kts | 358° |
| 2026-05-04 07:12 | 28.04679 | 113.23203 | 2270 ft | 177 kts | 357° |
| 2026-05-04 07:12 | 28.05918 | 113.23130 | 2257 ft | 179 kts | 358° |
| 2026-05-04 07:12 | 28.07162 | 113.23055 | 2200 ft | 182 kts | 357° |
| 2026-05-04 07:13 | 28.08457 | 113.22980 | 1961 ft | 189 kts | 358° |
| 2026-05-04 07:13 | 28.09750 | 113.22898 | 1690 ft | 176 kts | 358° |
| 2026-05-04 07:13 | 28.10931 | 113.22835 | 1460 ft | 166 kts | 358° |
| 2026-05-04 07:14 | 28.15729 | 113.22552 | 567 ft | 172 kts | 357° |
| 2026-05-04 07:14 | 28.16923 | 113.22481 | 348 ft | 170 kts | 358° |
| 2026-05-04 07:15 | 28.18094 | 113.22418 | 217 ft | 160 kts | 358° |
| 2026-05-04 07:15 | 28.19031 | 113.22366 | 208 ft | 91 kts | 355° |
| 2026-05-04 07:15 | 28.19501 | 113.22313 | 206 ft | 36 kts | 336° |
| 2026-05-04 07:15 | 28.19672 | 113.22197 | 213 ft | 20 kts | 328° |
| 2026-05-04 07:16 | 28.19790 | 113.22127 | 206 ft | 19 kts | 338° |
| 2026-05-04 07:16 | 28.19919 | 113.22108 | 205 ft | 19 kts | 356° |
| 2026-05-04 07:16 | 28.20045 | 113.22098 | 205 ft | 18 kts | 356° |
| 2026-05-04 07:16 | 28.20165 | 113.22092 | 206 ft | 17 kts | 358° |
| 2026-05-04 07:17 | 28.20278 | 113.22088 | 210 ft | 16 kts | 358° |
| 2026-05-04 07:17 | 28.20387 | 113.22084 | 211 ft | 15 kts | 358° |
| 2026-05-04 07:17 | 28.20489 | 113.22080 | 210 ft | 14 kts | 356° |
| 2026-05-04 07:17 | 28.20585 | 113.22067 | 210 ft | 14 kts | 328° |
| 2026-05-04 07:18 | 28.20613 | 113.21957 | 192 ft | 17 kts | 265° |
| 2026-05-04 07:18 | 28.20613 | 113.21824 | 189 ft | 12 kts | 274° |
| 2026-05-04 07:18 | 28.20613 | 113.21766 | 189 ft | 0 kts | 270° |
| 2026-05-04 07:20 | 28.20613 | 113.21765 | 189 ft | 1 kts | 270° |
| 2026-05-04 07:20 | 28.20609 | 113.21724 | 190 ft | 9 kts | 262° |
| 2026-05-04 07:20 | 28.20538 | 113.21686 | 191 ft | 17 kts | 177° |
| 2026-05-04 07:20 | 28.20412 | 113.21693 | 202 ft | 18 kts | 177° |
| 2026-05-04 07:22 | 28.20081 | 113.21463 | 201 ft | 1 kts | 72° |
| 2026-05-04 07:22 | 28.20081 | 113.21482 | 202 ft | 3 kts | 91° |
| 2026-05-04 07:23 | 28.20081 | 113.21496 | 197 ft | 1 kts | 87° |
| 2026-05-04 07:23 | 28.20082 | 113.21500 | 197 ft | 0 kts | 86° |